createdAt,value
2022-09-14T00:01:36.352Z,2.22
2022-09-14T00:04:08.678Z,1.85
2022-09-14T00:06:35.537Z,2.35
2022-09-14T00:09:06.686Z,2.42
2022-09-14T00:11:35.759Z,2.45
2022-09-14T00:14:04.063Z,2.10
2022-09-14T00:16:36.595Z,2.30
2022-09-14T00:19:08.008Z,2.30
2022-09-14T00:21:37.751Z,2.17
2022-09-14T00:24:07.110Z,2.03
2022-09-14T00:26:34.294Z,2.58
2022-09-14T00:29:04.716Z,2.95
2022-09-14T00:31:38.270Z,2.22
2022-09-14T00:34:08.317Z,2.30
2022-09-14T00:36:41.588Z,2.60
2022-09-14T00:39:09.011Z,2.30
2022-09-14T00:41:39.152Z,2.78
2022-09-14T00:44:11.738Z,2.60
2022-09-14T00:46:47.645Z,2.90
2022-09-14T00:49:32.344Z,2.70
2022-09-14T00:52:24.115Z,2.65
2022-09-14T00:54:56.479Z,3.17
2022-09-14T00:57:27.783Z,2.67
2022-09-14T00:59:55.577Z,2.75
2022-09-14T01:02:25.632Z,2.60
2022-09-14T01:04:52.916Z,2.72
2022-09-14T01:08:03.676Z,2.75
2022-09-14T01:10:58.021Z,2.25
2022-09-14T01:13:37.359Z,2.53
2022-09-14T01:16:16.862Z,2.47
2022-09-14T01:18:57.894Z,2.28
2022-09-14T01:21:38.281Z,2.85
2022-09-14T01:24:54.282Z,2.40
2022-09-14T01:27:34.469Z,3.63
2022-09-14T01:30:11.357Z,2.25
2022-09-14T01:33:14.609Z,2.60
2022-09-14T01:35:51.065Z,2.67
2022-09-14T01:38:26.561Z,2.05
2022-09-14T01:40:54.554Z,2.20
2022-09-14T01:43:46.496Z,2.10
2022-09-14T01:46:18.213Z,2.53
2022-09-14T01:49:02.376Z,2.55
2022-09-14T01:51:41.382Z,2.65
2022-09-14T01:54:17.798Z,1.88
2022-09-14T01:56:58.919Z,2.70
2022-09-14T01:59:31.654Z,3.05
2022-09-14T02:02:29.742Z,2.67
2022-09-14T02:05:08.456Z,2.22
2022-09-14T02:07:37.727Z,2.83
2022-09-14T02:10:09.770Z,2.88
2022-09-14T02:12:36.673Z,2.67
2022-09-14T02:15:05.264Z,2.72
2022-09-14T02:17:32.032Z,2.55
2022-09-14T02:20:07.141Z,3.42
2022-09-14T02:22:33.994Z,2.70
2022-09-14T02:25:01.131Z,3.17
2022-09-14T02:27:27.735Z,3.25
2022-09-14T02:29:54.954Z,3.50
2022-09-14T02:32:29.587Z,3.58
2022-09-14T02:35:28.346Z,2.55
2022-09-14T02:38:00.663Z,3.17
2022-09-14T02:40:46.410Z,2.67
2022-09-14T02:43:29.251Z,3.10
2022-09-14T02:46:29.437Z,3.40
2022-09-14T02:49:06.645Z,3.03
2022-09-14T02:51:50.011Z,2.60
2022-09-14T02:54:24.322Z,3.03
2022-09-14T02:56:51.003Z,2.47
2022-09-14T02:59:18.551Z,2.70
2022-09-14T03:01:45.303Z,2.92
2022-09-14T03:04:11.958Z,2.83
2022-09-14T03:06:38.720Z,2.80
2022-09-14T03:09:05.696Z,2.97
2022-09-14T03:11:32.364Z,2.58
2022-09-14T03:13:58.947Z,2.72
2022-09-14T03:16:25.670Z,2.50
2022-09-14T03:18:52.514Z,3.05
2022-09-14T03:21:19.835Z,2.53
2022-09-14T03:23:55.175Z,2.95
2022-09-14T03:26:24.777Z,2.50
2022-09-14T03:28:53.244Z,3.28
2022-09-14T03:31:20.926Z,3.28
2022-09-14T03:33:52.297Z,2.95
2022-09-14T03:36:20.461Z,3.05
2022-09-14T03:38:51.201Z,2.58
2022-09-14T03:41:18.540Z,2.83
2022-09-14T03:43:46.126Z,3.08
2022-09-14T03:46:16.167Z,2.95
2022-09-14T03:48:43.318Z,3.10
2022-09-14T03:51:12.279Z,3.08
2022-09-14T03:53:40.142Z,3.40
2022-09-14T03:56:16.758Z,2.75
2022-09-14T03:58:45.668Z,2.90
2022-09-14T04:01:18.164Z,2.95
2022-09-14T04:03:45.837Z,2.63
2022-09-14T04:06:14.151Z,3.30
2022-09-14T04:08:41.910Z,4.03
2022-09-14T04:11:15.914Z,2.92
2022-09-14T04:13:43.133Z,3.10
2022-09-14T04:16:10.581Z,3.30
2022-09-14T04:18:37.340Z,3.38
2022-09-14T04:21:08.713Z,2.92
2022-09-14T04:23:51.355Z,2.60
2022-09-14T04:26:27.729Z,2.72
2022-09-14T04:28:56.530Z,2.60
2022-09-14T04:31:24.332Z,3.10
2022-09-14T04:33:51.378Z,3.50
2022-09-14T04:36:28.129Z,5.72
2022-09-14T04:38:57.568Z,3.47
2022-09-14T04:41:25.432Z,2.70
2022-09-14T04:43:54.258Z,2.88
2022-09-14T04:46:28.495Z,2.42
2022-09-14T04:48:55.463Z,2.47
2022-09-14T04:51:26.485Z,2.75
2022-09-14T04:53:56.411Z,2.58
2022-09-14T04:56:24.314Z,2.70
2022-09-14T04:58:55.464Z,2.60
2022-09-14T05:01:26.611Z,2.83
2022-09-14T05:03:53.920Z,2.88
2022-09-14T05:06:29.658Z,2.85
2022-09-14T05:08:57.552Z,3.28
2022-09-14T05:11:29.020Z,2.13
2022-09-14T05:13:57.716Z,2.50
2022-09-14T05:16:34.584Z,2.50
2022-09-14T05:19:05.291Z,2.40
2022-09-14T05:21:34.597Z,2.22
2022-09-14T05:24:05.748Z,2.45
2022-09-14T05:26:32.933Z,2.42
2022-09-14T05:29:01.766Z,3.08
2022-09-14T05:31:30.158Z,2.30
2022-09-14T05:33:57.348Z,2.20
2022-09-14T05:36:25.357Z,2.50
2022-09-14T05:38:52.392Z,2.30
2022-09-14T05:41:19.336Z,2.47
2022-09-14T05:43:46.551Z,2.38
2022-09-14T05:46:22.121Z,2.58
2022-09-14T05:48:51.588Z,2.50
2022-09-14T05:51:24.997Z,2.42
2022-09-14T05:53:55.884Z,3.58
2022-09-14T05:56:26.083Z,2.20
2022-09-14T05:58:53.126Z,2.22
2022-09-14T06:01:22.714Z,2.45
2022-09-14T06:03:50.873Z,2.00
2022-09-14T06:06:19.619Z,2.05
2022-09-14T06:08:50.069Z,2.03
2022-09-14T06:11:20.122Z,2.55
2022-09-14T06:13:47.103Z,1.67
2022-09-14T06:16:20.037Z,2.38
2022-09-14T06:18:48.667Z,2.28
2022-09-14T06:21:19.185Z,1.73
2022-09-14T06:23:47.405Z,1.75
2022-09-14T06:26:14.249Z,2.08
2022-09-14T06:28:41.346Z,1.92
2022-09-14T06:31:09.897Z,2.10
2022-09-14T06:33:37.054Z,1.90
2022-09-14T06:36:09.606Z,3.05
2022-09-14T06:38:36.350Z,1.95
2022-09-14T06:41:05.375Z,2.03
2022-09-14T06:43:35.953Z,2.78
2022-09-14T06:46:04.572Z,2.72
2022-09-14T06:48:35.410Z,1.63
2022-09-14T06:51:24.304Z,2.00
2022-09-14T06:53:51.584Z,1.95
2022-09-14T06:56:18.996Z,1.73
2022-09-14T06:58:46.192Z,2.50
2022-09-14T07:01:17.302Z,1.80
2022-09-14T07:03:44.612Z,1.88
2022-09-14T07:06:15.785Z,1.88
2022-09-14T07:08:42.883Z,1.80
2022-09-14T07:11:12.816Z,1.95
2022-09-14T07:13:39.911Z,1.92
2022-09-14T07:16:08.185Z,1.60
2022-09-14T07:18:35.800Z,2.75
2022-09-14T07:21:15.388Z,2.08
2022-09-14T07:23:45.103Z,2.45
2022-09-14T07:26:28.002Z,2.00
2022-09-14T07:29:03.955Z,2.13
2022-09-14T07:31:35.958Z,1.80
2022-09-14T07:34:04.879Z,1.85
2022-09-14T07:36:35.192Z,1.95
2022-09-14T07:39:07.719Z,1.70
2022-09-14T07:41:35.649Z,1.70
2022-09-14T07:44:06.173Z,1.67
2022-09-14T07:46:39.031Z,2.08
2022-09-14T07:49:07.815Z,1.67
2022-09-14T07:51:36.748Z,1.85
2022-09-14T07:54:06.205Z,1.75
2022-09-14T07:56:34.865Z,1.50
2022-09-14T07:59:24.223Z,1.80
2022-09-14T08:01:49.995Z,1.98
2022-09-14T08:04:17.020Z,2.03
2022-09-14T08:06:43.768Z,1.73
2022-09-14T08:09:10.602Z,2.00
2022-09-14T08:11:38.607Z,1.73
2022-09-14T08:14:11.511Z,1.83
2022-09-14T08:16:40.343Z,1.83
2022-09-14T08:19:13.303Z,1.90
2022-09-14T08:21:45.616Z,1.80
2022-09-14T08:24:14.816Z,1.98
2022-09-14T08:26:41.591Z,1.70
2022-09-14T08:29:08.295Z,2.08
2022-09-14T08:31:42.579Z,2.03
2022-09-14T08:34:09.494Z,1.95
2022-09-14T08:36:39.261Z,2.28
2022-09-14T08:39:11.897Z,2.22
2022-09-14T08:41:41.262Z,1.90
2022-09-14T08:44:31.221Z,2.63
2022-09-14T08:47:12.124Z,1.40
2022-09-14T08:50:12.337Z,1.30
2022-09-14T08:52:55.324Z,1.38
2022-09-14T08:55:45.734Z,1.70
2022-09-14T08:59:09.844Z,1.92
2022-09-14T09:02:01.503Z,2.08
2022-09-14T09:04:53.777Z,1.80
2022-09-14T09:07:45.292Z,2.67
2022-09-14T09:10:13.813Z,2.60
2022-09-14T09:12:50.496Z,1.95
2022-09-14T09:15:28.070Z,1.90
2022-09-14T09:18:32.352Z,1.98
2022-09-14T09:21:17.682Z,1.33
2022-09-14T09:23:44.755Z,2.05
2022-09-14T09:26:25.318Z,2.33
2022-09-14T09:28:57.463Z,1.75
2022-09-14T09:31:39.518Z,1.63
2022-09-14T09:34:06.459Z,1.77
2022-09-14T09:36:46.778Z,1.98
2022-09-14T09:39:14.933Z,1.73
2022-09-14T09:41:53.032Z,1.88
2022-09-14T09:44:19.684Z,1.77
2022-09-14T09:47:00.858Z,1.98
2022-09-14T09:49:37.762Z,2.35
2022-09-14T09:52:16.793Z,1.88
2022-09-14T09:54:51.436Z,2.20
2022-09-14T09:57:34.226Z,2.30
2022-09-14T10:00:21.815Z,1.90
2022-09-14T10:02:49.326Z,2.03
2022-09-14T10:05:22.488Z,1.73
2022-09-14T10:07:58.522Z,1.50
2022-09-14T10:10:43.085Z,1.48
2022-09-14T10:13:29.792Z,1.80
2022-09-14T10:16:18.627Z,1.58
2022-09-14T10:18:49.454Z,2.08
2022-09-14T10:21:21.938Z,2.30
2022-09-14T10:24:20.422Z,1.75
2022-09-14T10:26:47.075Z,1.80
2022-09-14T10:29:35.498Z,1.88
2022-09-14T10:32:20.597Z,1.75
2022-09-14T10:34:47.249Z,1.38
2022-09-14T10:37:56.485Z,1.55
2022-09-14T10:40:37.595Z,2.08
2022-09-14T10:43:15.463Z,1.65
2022-09-14T10:45:51.847Z,1.70
2022-09-14T10:48:50.425Z,1.80
2022-09-14T10:51:39.342Z,2.05
2022-09-14T10:54:47.667Z,1.67
2022-09-14T10:57:51.001Z,1.55
2022-09-14T11:00:21.036Z,1.45
2022-09-14T11:02:57.524Z,1.88
2022-09-14T11:05:39.636Z,1.27
2022-09-14T11:08:26.675Z,1.30
2022-09-14T11:11:33.575Z,1.30
2022-09-14T11:14:45.339Z,1.40
2022-09-14T11:18:03.040Z,1.27
2022-09-14T11:21:17.632Z,1.63
2022-09-14T11:24:05.969Z,1.85
2022-09-14T11:26:51.464Z,1.60
2022-09-14T11:29:46.500Z,1.70
2022-09-14T11:32:45.620Z,1.90
2022-09-14T11:35:36.909Z,1.30
2022-09-14T11:38:12.796Z,1.50
2022-09-14T11:40:55.169Z,1.27
2022-09-14T11:43:49.450Z,1.60
2022-09-14T11:46:45.113Z,2.83
2022-09-14T11:49:39.720Z,1.58
2022-09-14T11:52:12.330Z,1.48
2022-09-14T11:54:46.603Z,2.38
2022-09-14T11:57:33.235Z,1.60
2022-09-14T12:00:24.043Z,1.77
2022-09-14T12:03:14.447Z,1.52
2022-09-14T12:05:44.489Z,1.45
2022-09-14T12:08:35.427Z,2.17
2022-09-14T12:11:31.235Z,1.60
2022-09-14T12:14:36.654Z,1.52
2022-09-14T12:17:41.011Z,1.67
2022-09-14T12:20:29.356Z,1.60
2022-09-14T12:23:26.629Z,0.93
2022-09-14T12:26:11.559Z,1.13
2022-09-14T12:28:40.054Z,2.10
2022-09-14T12:31:13.891Z,1.55
2022-09-14T12:33:43.685Z,1.63
2022-09-14T12:36:22.817Z,1.63
2022-09-14T12:38:49.403Z,1.73
2022-09-14T12:41:15.913Z,2.03
2022-09-14T12:43:42.477Z,1.80
2022-09-14T12:46:21.438Z,1.67
2022-09-14T12:48:48.299Z,1.40
2022-09-14T12:51:28.125Z,1.67
2022-09-14T12:54:09.869Z,1.17
2022-09-14T12:56:54.599Z,2.05
2022-09-14T12:59:57.229Z,1.65
2022-09-14T13:02:59.865Z,1.30
2022-09-14T13:05:31.728Z,1.83
2022-09-14T13:07:58.810Z,1.25
2022-09-14T13:10:32.827Z,1.30
2022-09-14T13:13:02.791Z,1.20
2022-09-14T13:15:37.279Z,1.65
2022-09-14T13:18:23.636Z,2.00
2022-09-14T13:20:58.719Z,1.45
2022-09-14T13:23:39.332Z,1.65
2022-09-14T13:26:16.024Z,1.67
2022-09-14T13:28:46.797Z,1.85
2022-09-14T13:31:21.377Z,1.58
2022-09-14T13:33:51.647Z,2.08
2022-09-14T13:36:24.157Z,1.65
2022-09-14T13:38:51.944Z,1.50
2022-09-14T13:41:22.859Z,1.48
2022-09-14T13:43:54.270Z,1.52
2022-09-14T13:46:23.476Z,1.55
2022-09-14T13:48:51.562Z,1.23
2022-09-14T13:51:25.860Z,1.23
2022-09-14T13:53:55.868Z,2.72
2022-09-14T13:56:33.086Z,2.00
2022-09-14T13:59:09.159Z,2.28
2022-09-14T14:01:58.510Z,1.40
2022-09-14T14:04:39.073Z,1.80
2022-09-14T14:07:19.072Z,1.65
2022-09-14T14:09:58.322Z,1.80
2022-09-14T14:12:36.931Z,1.10
2022-09-14T14:15:09.347Z,1.85
2022-09-14T14:17:39.127Z,1.90
2022-09-14T14:20:24.053Z,1.58
2022-09-14T14:23:08.491Z,1.60
2022-09-14T14:25:45.483Z,2.03
2022-09-14T14:28:28.591Z,1.67
2022-09-14T14:30:57.878Z,1.58
2022-09-14T14:33:25.089Z,1.60
2022-09-14T14:35:54.354Z,1.65
2022-09-14T14:38:23.413Z,1.90
2022-09-14T14:40:54.336Z,1.90
2022-09-14T14:43:25.234Z,1.42
2022-09-14T14:46:00.977Z,1.92
2022-09-14T14:48:29.216Z,1.70
2022-09-14T14:50:56.269Z,1.83
2022-09-14T14:53:24.607Z,1.70
2022-09-14T14:55:53.120Z,1.63
2022-09-14T14:58:21.835Z,1.92
2022-09-14T15:00:49.130Z,2.35
2022-09-14T15:03:16.657Z,1.40
2022-09-14T15:05:45.193Z,1.63
2022-09-14T15:08:14.518Z,1.45
2022-09-14T15:10:41.297Z,1.42
2022-09-14T15:13:10.356Z,1.60
2022-09-14T15:15:37.091Z,1.67
2022-09-14T15:18:03.782Z,1.83
2022-09-14T15:20:30.420Z,1.48
2022-09-14T15:22:57.079Z,1.90
2022-09-14T15:25:23.700Z,1.50
2022-09-14T15:27:50.413Z,1.55
2022-09-14T15:30:17.424Z,1.45
2022-09-14T15:32:44.641Z,1.55
2022-09-14T15:35:14.185Z,1.70
2022-09-14T15:37:41.770Z,1.60
2022-09-14T15:40:09.587Z,2.00
2022-09-14T15:42:36.240Z,1.65
2022-09-14T15:45:03.837Z,1.83
2022-09-14T15:47:35.487Z,1.70
2022-09-14T15:50:03.598Z,1.90
2022-09-14T15:52:30.242Z,1.30
2022-09-14T15:54:56.871Z,2.00
2022-09-14T15:57:23.556Z,1.50
2022-09-14T15:59:50.302Z,1.60
2022-09-14T16:02:20.049Z,1.60
2022-09-14T16:04:46.730Z,1.63
2022-09-14T16:07:13.912Z,1.63
2022-09-14T16:09:42.383Z,1.63
2022-09-14T16:12:11.820Z,2.40
2022-09-14T16:14:38.680Z,1.95
2022-09-14T16:17:05.884Z,1.85
2022-09-14T16:19:32.672Z,1.33
2022-09-14T16:21:59.640Z,2.15
2022-09-14T16:24:27.588Z,1.73
2022-09-14T16:26:55.178Z,1.48
2022-09-14T16:29:24.111Z,1.90
2022-09-14T16:31:51.640Z,1.90
2022-09-14T16:34:28.735Z,1.70
2022-09-14T16:36:58.511Z,1.77
2022-09-14T16:39:29.412Z,2.10
2022-09-14T16:41:56.697Z,1.95
2022-09-14T16:44:26.829Z,1.88
2022-09-14T16:46:55.707Z,1.77
2022-09-14T16:49:27.190Z,2.58
2022-09-14T16:51:56.191Z,2.80
2022-09-14T16:54:25.407Z,2.72
2022-09-14T16:56:56.781Z,2.50
2022-09-14T16:59:26.648Z,1.85
2022-09-14T17:01:55.314Z,1.90
2022-09-14T17:04:23.751Z,1.90
2022-09-14T17:06:51.613Z,1.92
2022-09-14T17:09:23.793Z,2.00
2022-09-14T17:11:50.485Z,1.60
2022-09-14T17:14:20.758Z,1.77
2022-09-14T17:16:48.316Z,9.60
2022-09-14T17:19:15.540Z,7.97
2022-09-14T17:21:45.069Z,2.78
2022-09-14T17:24:13.000Z,1.88
2022-09-14T17:26:40.123Z,2.40
2022-09-14T17:29:07.027Z,1.92
2022-09-14T17:31:38.064Z,2.40
2022-09-14T17:34:07.452Z,2.25
2022-09-14T17:36:35.082Z,2.95
2022-09-14T17:39:07.963Z,2.70
2022-09-14T17:41:38.922Z,4.03
2022-09-14T17:44:07.391Z,3.25
2022-09-14T17:46:35.060Z,2.58
2022-09-14T17:49:04.658Z,2.10
2022-09-14T17:51:32.796Z,1.70
2022-09-14T17:54:01.305Z,2.58
2022-09-14T17:56:29.641Z,1.83
2022-09-14T17:59:15.231Z,2.35
2022-09-14T18:01:41.949Z,2.28
2022-09-14T18:04:14.006Z,3.22
2022-09-14T18:06:44.149Z,2.58
2022-09-14T18:09:21.853Z,2.47
2022-09-14T18:11:50.472Z,2.55
2022-09-14T18:14:17.450Z,2.28
2022-09-14T18:16:45.157Z,2.78
2022-09-14T18:19:12.236Z,2.85
2022-09-14T18:21:39.199Z,2.03
2022-09-14T18:24:06.579Z,2.65
2022-09-14T18:26:33.381Z,2.20
2022-09-14T18:29:00.117Z,2.33
2022-09-14T18:31:27.348Z,2.20
2022-09-14T18:33:59.080Z,3.17
2022-09-14T18:36:28.965Z,2.90
2022-09-14T18:38:56.990Z,3.17
2022-09-14T18:41:23.644Z,2.95
2022-09-14T18:43:52.213Z,3.05
2022-09-14T18:46:19.373Z,3.20
2022-09-14T18:48:50.350Z,3.08
2022-09-14T18:51:17.046Z,3.45
2022-09-14T18:53:43.645Z,3.35
2022-09-14T18:56:14.234Z,3.25
2022-09-14T18:58:47.243Z,3.20
2022-09-14T19:01:15.083Z,5.20
2022-09-14T19:03:43.430Z,4.50
2022-09-14T19:06:14.030Z,3.90
2022-09-14T19:08:41.543Z,3.70
2022-09-14T19:11:15.303Z,3.85
2022-09-14T19:13:42.239Z,3.40
2022-09-14T19:16:12.414Z,3.50
2022-09-14T19:18:40.704Z,3.75
2022-09-14T19:21:14.300Z,3.30
2022-09-14T19:23:42.933Z,3.53
2022-09-14T19:26:17.234Z,3.55
2022-09-14T19:28:44.651Z,3.60
2022-09-14T19:31:17.764Z,3.78
2022-09-14T19:33:45.819Z,3.33
2022-09-14T19:36:22.387Z,3.40
2022-09-14T19:38:51.824Z,3.80
2022-09-14T19:41:19.950Z,3.95
2022-09-14T19:43:47.220Z,7.22
2022-09-14T19:46:18.947Z,5.90
2022-09-14T19:48:47.038Z,3.00
2022-09-14T19:51:23.179Z,3.75
2022-09-14T19:53:52.333Z,2.83
2022-09-14T19:56:25.343Z,3.22
2022-09-14T19:58:54.588Z,2.67
2022-09-14T20:01:25.523Z,3.08
2022-09-14T20:03:52.873Z,4.47
2022-09-14T20:06:25.533Z,5.22
2022-09-14T20:09:18.117Z,3.63
2022-09-14T20:11:46.984Z,2.80
2022-09-14T20:14:23.521Z,2.33
2022-09-14T20:16:53.977Z,2.92
2022-09-14T20:19:24.579Z,2.70
2022-09-14T20:21:52.348Z,2.70
2022-09-14T20:24:26.237Z,2.60
2022-09-14T20:26:56.680Z,2.25
2022-09-14T20:29:25.041Z,2.40
2022-09-14T20:31:52.339Z,2.67
2022-09-14T20:34:20.724Z,2.28
2022-09-14T20:36:52.314Z,2.95
2022-09-14T20:39:21.644Z,2.70
2022-09-14T20:41:48.810Z,2.97
2022-09-14T20:44:16.998Z,2.47
2022-09-14T20:46:45.157Z,2.53
2022-09-14T20:49:16.908Z,6.03
2022-09-14T20:51:43.744Z,5.35
2022-09-14T20:54:13.936Z,3.08
2022-09-14T20:56:41.791Z,3.45
2022-09-14T20:59:15.876Z,3.03
2022-09-14T21:01:45.502Z,3.33
2022-09-14T21:04:21.175Z,2.50
2022-09-14T21:06:52.632Z,2.92
2022-09-14T21:09:21.900Z,2.60
2022-09-14T21:11:48.586Z,3.10
2022-09-14T21:14:17.917Z,3.22
2022-09-14T21:16:48.459Z,3.53
2022-09-14T21:19:20.440Z,2.78
2022-09-14T21:21:48.772Z,3.03
2022-09-14T21:24:17.511Z,3.00
2022-09-14T21:26:45.374Z,2.78
2022-09-14T21:29:20.319Z,2.97
2022-09-14T21:31:48.659Z,3.58
2022-09-14T21:34:16.071Z,3.17
2022-09-14T21:36:46.702Z,3.17
2022-09-14T21:39:23.442Z,2.42
2022-09-14T21:41:58.071Z,3.17
2022-09-14T21:44:34.079Z,2.92
2022-09-14T21:47:02.109Z,3.60
2022-09-14T21:49:28.861Z,3.60
2022-09-14T21:51:55.586Z,3.88
2022-09-14T21:54:22.467Z,4.47
2022-09-14T21:56:49.372Z,4.45
2022-09-14T21:59:20.283Z,3.45
2022-09-14T22:01:48.880Z,3.50
2022-09-14T22:04:19.572Z,3.85
2022-09-14T22:06:46.858Z,4.55
2022-09-14T22:09:16.877Z,4.10
2022-09-14T22:11:44.482Z,4.13
2022-09-14T22:14:20.644Z,3.80
2022-09-14T22:16:48.956Z,4.07
2022-09-14T22:19:22.866Z,4.20
2022-09-14T22:21:50.909Z,4.55
2022-09-14T22:24:21.799Z,3.67
2022-09-14T22:26:50.239Z,4.70
2022-09-14T22:29:18.441Z,4.13
2022-09-14T22:31:46.228Z,4.28
2022-09-14T22:34:14.334Z,3.92
2022-09-14T22:36:40.976Z,4.07
2022-09-14T22:39:09.129Z,4.15
2022-09-14T22:41:36.701Z,4.25
2022-09-14T22:44:04.551Z,4.10
2022-09-14T22:46:31.425Z,4.53
2022-09-14T22:48:58.425Z,5.18
2022-09-14T22:51:27.984Z,5.07
2022-09-14T22:53:54.640Z,5.10
2022-09-14T22:56:30.149Z,6.13
2022-09-14T22:58:58.042Z,8.15
2022-09-14T23:01:29.359Z,9.82
2022-09-14T23:03:59.955Z,7.00
2022-09-14T23:06:35.180Z,8.48
2022-09-14T23:09:02.557Z,8.63
2022-09-14T23:11:30.090Z,9.80
2022-09-14T23:13:58.744Z,9.52
2022-09-14T23:16:29.535Z,8.20
2022-09-14T23:19:00.469Z,8.02
2022-09-14T23:21:28.959Z,7.82
2022-09-14T23:23:59.127Z,5.85
2022-09-14T23:26:26.488Z,5.90
2022-09-14T23:29:02.832Z,5.05
2022-09-14T23:31:32.103Z,4.70
2022-09-14T23:34:01.300Z,4.35
2022-09-14T23:36:28.431Z,4.15
2022-09-14T23:38:55.256Z,4.15
2022-09-14T23:41:24.170Z,4.50
2022-09-14T23:43:51.743Z,3.92
2022-09-14T23:46:19.457Z,4.60
2022-09-14T23:48:46.995Z,4.68
2022-09-14T23:51:14.214Z,4.65
2022-09-14T23:53:41.578Z,4.22
2022-09-14T23:56:09.239Z,5.15
2022-09-14T23:58:36.139Z,4.97
